Time,TemperatureF,DewpointF,PressureIn,WindDirection,WindDirectionDegrees,WindSpeedMPH,WindSpeedGustMPH,Humidity,HourlyPrecipIn,Conditions,Clouds,dailyrainin,SoftwareType,DateUTC
2013-10-09 00:03:00,50.5,44.2,30.25,NE,53,0.0,0.0,79,0.00,,,0.06,Wunderground v.1.15,2013-10-09 04:03:00,
2013-10-09 00:08:00,50.3,44.4,30.25,NE,53,0.0,0.0,80,0.00,,,0.00,Wunderground v.1.15,2013-10-09 04:08:00,
2013-10-09 00:13:00,50.3,44.4,30.25,NE,53,0.0,0.0,80,0.00,,,0.00,Wunderground v.1.15,2013-10-09 04:13:00,
2013-10-09 00:19:00,50.3,44.4,30.25,NE,53,0.0,0.0,80,0.00,,,0.00,Wunderground v.1.15,2013-10-09 04:19:00,
2013-10-09 00:23:00,50.3,44.4,30.25,NE,53,0.0,0.0,80,0.00,,,0.00,Wunderground v.1.15,2013-10-09 04:23:00,
2013-10-09 00:28:00,50.4,44.5,30.25,NE,53,0.0,0.0,80,0.00,,,0.00,Wunderground v.1.15,2013-10-09 04:28:00,
2013-10-09 00:39:00,50.5,44.6,30.25,NE,53,0.0,0.0,80,0.00,,,0.00,Wunderground v.1.15,2013-10-09 04:39:00,
2013-10-09 00:48:00,50.3,44.4,30.25,NE,53,0.0,0.0,80,0.00,,,0.00,Wunderground v.1.15,2013-10-09 04:48:00,
2013-10-09 00:58:00,49.7,44.1,30.24,NE,53,0.0,0.0,81,0.00,,,0.00,Wunderground v.1.15,2013-10-09 04:58:00,
2013-10-09 01:09:00,49.3,44.0,30.24,NE,53,0.0,0.0,82,0.00,,,0.00,Wunderground v.1.15,2013-10-09 05:09:00,
2013-10-09 01:19:00,49.3,44.4,30.24,NE,53,0.0,0.0,83,0.00,,,0.00,Wunderground v.1.15,2013-10-09 05:19:00,
2013-10-09 01:28:00,49.5,44.6,30.24,NE,53,0.0,0.0,83,0.00,,,0.00,Wunderground v.1.15,2013-10-09 05:28:00,
2013-10-09 01:38:00,49.1,44.2,30.24,NE,53,0.0,0.0,83,0.00,,,0.00,Wunderground v.1.15,2013-10-09 05:38:00,
2013-10-09 01:48:00,48.7,44.1,30.24,NE,53,0.0,0.0,84,0.00,,,0.00,Wunderground v.1.15,2013-10-09 05:48:00,
2013-10-09 01:58:00,48.6,44.3,30.24,NE,53,0.0,0.0,85,0.00,,,0.00,Wunderground v.1.15,2013-10-09 05:58:00,
2013-10-09 02:03:00,48.4,44.1,30.24,NE,53,0.0,0.0,85,0.00,,,0.00,Wunderground v.1.15,2013-10-09 06:03:00,
2013-10-09 02:09:00,48.2,43.9,30.24,NE,53,0.0,0.0,85,0.00,,,0.00,Wunderground v.1.15,2013-10-09 06:09:00,
2013-10-09 02:18:00,47.9,43.9,30.24,NE,53,0.0,0.0,86,0.00,,,0.00,Wunderground v.1.15,2013-10-09 06:18:00,
2013-10-09 02:28:00,47.9,43.9,30.24,NE,53,0.0,0.0,86,0.00,,,0.00,Wunderground v.1.15,2013-10-09 06:28:00,
2013-10-09 02:39:00,47.9,43.9,30.24,NE,53,0.0,0.0,86,0.00,,,0.00,Wunderground v.1.15,2013-10-09 06:39:00,
2013-10-09 02:48:00,48.1,44.1,30.24,NE,53,0.0,0.0,86,0.00,,,0.00,Wunderground v.1.15,2013-10-09 06:48:00,
2013-10-09 02:58:00,48.5,44.5,30.23,NE,53,0.0,0.0,86,0.00,,,0.00,Wunderground v.1.15,2013-10-09 06:58:00,
2013-10-09 03:03:00,48.7,44.7,30.23,NE,53,0.0,0.0,86,0.00,,,0.00,Wunderground v.1.15,2013-10-09 07:03:00,
2013-10-09 03:08:00,48.9,44.6,30.23,NE,53,0.0,0.0,85,0.00,,,0.00,Wunderground v.1.15,2013-10-09 07:08:00,
2013-10-09 03:18:00,48.7,44.4,30.22,NE,53,0.0,0.0,85,0.00,,,0.00,Wunderground v.1.15,2013-10-09 07:18:00,
2013-10-09 03:28:00,48.6,44.6,30.23,NE,53,0.0,0.0,86,0.00,,,0.00,Wunderground v.1.15,2013-10-09 07:28:00,
2013-10-09 03:38:00,48.5,44.2,30.22,NE,53,0.0,0.0,85,0.00,,,0.00,Wunderground v.1.15,2013-10-09 07:38:00,
2013-10-09 03:49:00,48.4,44.4,30.22,NE,53,0.0,0.0,86,0.00,,,0.00,Wunderground v.1.15,2013-10-09 07:49:00,
2013-10-09 04:03:00,48.3,44.3,30.22,NE,53,0.0,0.0,86,0.00,,,0.00,Wunderground v.1.15,2013-10-09 08:03:00,
2013-10-09 04:13:00,48.4,44.1,30.22,NE,53,0.0,0.0,85,0.00,,,0.00,Wunderground v.1.15,2013-10-09 08:13:00,
2013-10-09 04:23:00,48.5,44.5,30.22,NE,53,0.0,0.0,86,0.00,,,0.00,Wunderground v.1.15,2013-10-09 08:23:00,
2013-10-09 04:29:00,48.7,44.4,30.22,NE,53,0.0,0.0,85,0.00,,,0.00,Wunderground v.1.15,2013-10-09 08:29:00,
2013-10-09 04:38:00,48.9,44.6,30.22,NE,53,0.0,0.0,85,0.00,,,0.00,Wunderground v.1.15,2013-10-09 08:38:00,
2013-10-09 04:48:00,49.0,44.7,30.22,NE,53,0.0,0.0,85,0.00,,,0.00,Wunderground v.1.15,2013-10-09 08:48:00,
2013-10-09 04:58:00,48.7,44.1,30.22,NE,53,0.0,0.0,84,0.00,,,0.00,Wunderground v.1.15,2013-10-09 08:58:00,
2013-10-09 05:08:00,48.2,43.9,30.22,NE,53,0.0,0.0,85,0.00,,,0.00,Wunderground v.1.15,2013-10-09 09:08:00,
2013-10-09 05:18:00,47.6,43.9,30.22,NE,53,0.0,0.0,87,0.00,,,0.00,Wunderground v.1.15,2013-10-09 09:18:00,
2013-10-09 05:28:00,46.8,43.4,30.22,NE,53,0.0,0.0,88,0.00,,,0.00,Wunderground v.1.15,2013-10-09 09:28:00,
2013-10-09 05:38:00,46.1,43.0,30.22,NE,53,0.0,0.0,89,0.00,,,0.00,Wunderground v.1.15,2013-10-09 09:38:00,
2013-10-09 05:48:00,45.2,42.2,30.23,NE,53,0.0,0.0,89,0.00,,,0.00,Wunderground v.1.15,2013-10-09 09:48:00,
2013-10-09 05:58:00,44.7,41.9,30.22,NE,53,0.0,0.0,90,0.00,,,0.00,Wunderground v.1.15,2013-10-09 09:58:00,
2013-10-09 06:09:00,44.6,42.1,30.22,NE,53,0.0,0.0,91,0.00,,,0.00,Wunderground v.1.15,2013-10-09 10:09:00,
2013-10-09 06:18:00,44.7,42.2,30.23,NE,53,0.0,0.0,91,0.00,,,0.00,Wunderground v.1.15,2013-10-09 10:18:00,
2013-10-09 06:29:00,45.0,42.8,30.23,NE,53,0.0,0.0,92,0.00,,,0.00,Wunderground v.1.15,2013-10-09 10:29:00,
2013-10-09 06:38:00,45.0,42.5,30.23,NE,53,0.0,0.0,91,0.00,,,0.00,Wunderground v.1.15,2013-10-09 10:38:00,
2013-10-09 06:48:00,45.1,42.6,30.23,NE,53,0.0,0.0,91,0.00,,,0.00,Wunderground v.1.15,2013-10-09 10:48:00,
2013-10-09 06:58:00,45.3,42.8,30.23,NE,53,0.0,0.0,91,0.00,,,0.00,Wunderground v.1.15,2013-10-09 10:58:00,
2013-10-09 07:09:00,45.2,42.7,30.24,NE,53,0.0,0.0,91,0.00,,,0.00,Wunderground v.1.15,2013-10-09 11:09:00,
2013-10-09 07:18:00,44.9,42.1,30.24,NE,53,0.0,0.0,90,0.00,,,0.00,Wunderground v.1.15,2013-10-09 11:18:00,
2013-10-09 07:28:00,44.3,41.8,30.24,NE,53,0.0,0.0,91,0.00,,,0.00,Wunderground v.1.15,2013-10-09 11:28:00,
2013-10-09 07:38:00,44.0,41.5,30.24,NE,53,0.0,0.0,91,0.00,,,0.00,Wunderground v.1.15,2013-10-09 11:38:00,
2013-10-09 07:48:00,43.7,41.5,30.24,NE,53,0.0,0.0,92,0.00,,,0.00,Wunderground v.1.15,2013-10-09 11:48:00,
2013-10-09 07:58:00,43.8,41.6,30.24,NE,53,0.0,0.0,92,0.00,,,0.00,Wunderground v.1.15,2013-10-09 11:58:00,
2013-10-09 08:03:00,44.2,42.3,30.25,NE,53,0.0,0.0,93,0.00,,,0.00,Wunderground v.1.15,2013-10-09 12:03:00,
2013-10-09 08:08:00,44.6,42.4,30.25,NE,53,0.0,0.0,92,0.00,,,0.00,Wunderground v.1.15,2013-10-09 12:08:00,
2013-10-09 08:18:00,45.3,43.4,30.25,NE,53,0.0,0.0,93,0.00,,,0.00,Wunderground v.1.15,2013-10-09 12:18:00,
2013-10-09 08:23:00,45.8,43.6,30.25,NE,53,0.0,0.0,92,0.00,,,0.00,Wunderground v.1.15,2013-10-09 12:23:00,
2013-10-09 08:29:00,46.5,44.3,30.25,NE,53,0.0,0.0,92,0.00,,,0.00,Wunderground v.1.15,2013-10-09 12:29:00,
2013-10-09 08:39:00,48.3,45.8,30.26,NE,53,0.0,0.0,91,0.00,,,0.00,Wunderground v.1.15,2013-10-09 12:39:00,
2013-10-09 08:48:00,49.7,46.6,30.26,NE,53,0.0,0.0,89,0.00,,,0.00,Wunderground v.1.15,2013-10-09 12:48:00,
2013-10-09 08:59:00,50.6,46.6,30.26,East,82,0.0,0.0,86,0.00,,,0.00,Wunderground v.1.15,2013-10-09 12:59:00,
2013-10-09 09:08:00,51.1,47.4,30.26,East,85,0.0,0.0,87,0.00,,,0.00,Wunderground v.1.15,2013-10-09 13:08:00,
2013-10-09 09:18:00,51.6,47.2,30.27,East,86,0.0,0.0,85,0.00,,,0.00,Wunderground v.1.15,2013-10-09 13:18:00,
2013-10-09 09:28:00,52.3,47.9,30.27,East,90,0.0,0.0,85,0.00,,,0.00,Wunderground v.1.15,2013-10-09 13:28:00,
2013-10-09 09:38:00,52.9,47.9,30.27,East,98,0.0,0.0,83,0.00,,,0.00,Wunderground v.1.15,2013-10-09 13:38:00,
2013-10-09 09:48:00,53.5,47.8,30.27,ESE,105,0.0,0.0,81,0.00,,,0.00,Wunderground v.1.15,2013-10-09 13:48:00,
2013-10-09 09:58:00,54.2,48.2,30.26,ESE,111,0.0,0.0,80,0.00,,,0.00,Wunderground v.1.15,2013-10-09 13:58:00,
2013-10-09 10:08:00,54.8,48.4,30.27,East,90,1.0,2.0,79,0.00,,,0.00,Wunderground v.1.15,2013-10-09 14:08:00,
2013-10-09 10:18:00,55.5,48.8,30.27,East,92,3.0,3.0,78,0.00,,,0.00,Wunderground v.1.15,2013-10-09 14:18:00,
2013-10-09 10:28:00,56.7,49.9,30.27,East,93,2.0,5.0,78,0.00,,,0.00,Wunderground v.1.15,2013-10-09 14:28:00,
2013-10-09 10:38:00,57.6,49.7,30.27,East,94,2.0,2.0,75,0.00,,,0.00,Wunderground v.1.15,2013-10-09 14:38:00,
2013-10-09 10:48:00,58.8,50.5,30.27,ESE,103,2.0,2.0,74,0.00,,,0.00,Wunderground v.1.15,2013-10-09 14:48:00,
2013-10-09 10:58:00,59.9,50.1,30.27,SE,132,3.0,3.0,70,0.00,,,0.00,Wunderground v.1.15,2013-10-09 14:58:00,
2013-10-09 11:08:00,60.4,50.6,30.27,ESE,107,2.0,2.0,70,0.00,,,0.00,Wunderground v.1.15,2013-10-09 15:08:00,
2013-10-09 11:19:00,61.2,52.1,30.27,East,90,2.0,2.0,72,0.00,,,0.00,Wunderground v.1.15,2013-10-09 15:19:00,
2013-10-09 11:29:00,61.4,50.3,30.27,East,96,3.0,5.0,67,0.00,,,0.00,Wunderground v.1.15,2013-10-09 15:29:00,
2013-10-09 11:38:00,62.1,50.6,30.27,NE,45,3.0,4.0,66,0.00,,,0.00,Wunderground v.1.15,2013-10-09 15:38:00,
2013-10-09 11:48:00,62.9,49.7,30.27,East,101,4.0,5.0,62,0.00,,,0.00,Wunderground v.1.15,2013-10-09 15:48:00,
2013-10-09 11:58:00,63.6,50.8,30.26,East,88,3.0,3.0,63,0.00,,,0.00,Wunderground v.1.15,2013-10-09 15:58:00,
2013-10-09 12:03:00,64.1,51.2,30.26,East,90,3.0,3.0,63,0.00,,,0.00,Wunderground v.1.15,2013-10-09 16:03:00,
2013-10-09 12:08:00,64.5,51.2,30.26,ESE,103,3.0,4.0,62,0.00,,,0.00,Wunderground v.1.15,2013-10-09 16:08:00,
2013-10-09 12:18:00,64.8,51.5,30.26,East,94,4.0,4.0,62,0.00,,,0.00,Wunderground v.1.15,2013-10-09 16:18:00,
2013-10-09 12:28:00,65.3,51.9,30.26,ESE,109,3.0,3.0,62,0.00,,,0.00,Wunderground v.1.15,2013-10-09 16:28:00,
2013-10-09 12:38:00,66.2,51.0,30.26,SSE,150,4.0,4.0,58,0.00,,,0.00,Wunderground v.1.15,2013-10-09 16:38:00,
2013-10-09 12:48:00,66.6,51.4,30.26,ESE,119,4.0,4.0,58,0.00,,,0.00,Wunderground v.1.15,2013-10-09 16:48:00,
2013-10-09 12:58:00,67.2,51.0,30.25,East,99,5.0,8.0,56,0.00,,,0.00,Wunderground v.1.15,2013-10-09 16:58:00,
2013-10-09 13:09:00,67.3,52.0,30.25,SE,133,4.0,5.0,58,0.00,,,0.00,Wunderground v.1.15,2013-10-09 17:09:00,
2013-10-09 13:19:00,67.9,53.0,30.24,ESE,112,4.0,5.0,59,0.00,,,0.00,Wunderground v.1.15,2013-10-09 17:19:00,
2013-10-09 13:29:00,68.1,51.3,30.24,East,92,4.0,5.0,55,0.00,,,0.00,Wunderground v.1.15,2013-10-09 17:29:00,
2013-10-09 13:39:00,68.0,50.7,30.23,East,86,6.0,6.0,54,0.00,,,0.00,Wunderground v.1.15,2013-10-09 17:39:00,
2013-10-09 13:49:00,68.5,50.2,30.23,ESE,119,5.0,5.0,52,0.00,,,0.00,Wunderground v.1.15,2013-10-09 17:49:00,
2013-10-09 13:59:00,69.0,50.6,30.23,East,89,6.0,6.0,52,0.00,,,0.00,Wunderground v.1.15,2013-10-09 17:59:00,
2013-10-09 14:08:00,68.8,49.4,30.22,ESE,103,4.0,4.0,50,0.00,,,0.00,Wunderground v.1.15,2013-10-09 18:08:00,
2013-10-09 14:18:00,69.0,48.5,30.22,South,182,4.0,4.0,48,0.00,,,0.00,Wunderground v.1.15,2013-10-09 18:18:00,
2013-10-09 14:28:00,69.4,51.0,30.21,East,100,6.0,7.0,52,0.00,,,0.00,Wunderground v.1.15,2013-10-09 18:28:00,
2013-10-09 14:38:00,69.5,49.5,30.21,ESE,105,6.0,7.0,49,0.00,,,0.00,Wunderground v.1.15,2013-10-09 18:38:00,
2013-10-09 14:48:00,69.5,50.0,30.21,SE,142,4.0,4.0,50,0.00,,,0.00,Wunderground v.1.15,2013-10-09 18:48:00,
2013-10-09 14:58:00,69.6,50.1,30.20,SSE,161,4.0,4.0,50,0.00,,,0.00,Wunderground v.1.15,2013-10-09 18:58:00,
2013-10-09 15:09:00,69.7,50.8,30.20,ESE,110,3.0,3.0,51,0.00,,,0.00,Wunderground v.1.15,2013-10-09 19:09:00,
2013-10-09 15:19:00,70.1,51.7,30.20,SE,132,2.0,5.0,52,0.00,,,0.00,Wunderground v.1.15,2013-10-09 19:19:00,
2013-10-09 15:28:00,70.1,50.6,30.19,ENE,74,4.0,4.0,50,0.00,,,0.00,Wunderground v.1.15,2013-10-09 19:28:00,
2013-10-09 15:38:00,70.3,52.4,30.19,ESE,107,2.0,2.0,53,0.00,,,0.00,Wunderground v.1.15,2013-10-09 19:38:00,
2013-10-09 15:48:00,70.6,51.1,30.19,ENE,58,3.0,4.0,50,0.00,,,0.00,Wunderground v.1.15,2013-10-09 19:48:00,
2013-10-09 15:58:00,70.8,51.8,30.19,East,80,3.0,3.0,51,0.00,,,0.00,Wunderground v.1.15,2013-10-09 19:58:00,
2013-10-09 16:03:00,70.9,50.8,30.19,ENE,67,2.0,3.0,49,0.00,,,0.00,Wunderground v.1.15,2013-10-09 20:03:00,
2013-10-09 16:09:00,71.0,50.3,30.19,ESE,108,2.0,4.0,48,0.00,,,0.00,Wunderground v.1.15,2013-10-09 20:09:00,
2013-10-09 16:18:00,70.7,50.0,30.19,ESE,121,3.0,4.0,48,0.00,,,0.00,Wunderground v.1.15,2013-10-09 20:18:00,
2013-10-09 16:28:00,70.5,49.3,30.19,East,98,3.0,3.0,47,0.00,,,0.00,Wunderground v.1.15,2013-10-09 20:28:00,
2013-10-09 16:38:00,70.8,50.1,30.19,East,96,1.0,1.0,48,0.00,,,0.00,Wunderground v.1.15,2013-10-09 20:38:00,
2013-10-09 16:48:00,71.1,49.3,30.18,SE,133,2.0,2.0,46,0.00,,,0.00,Wunderground v.1.15,2013-10-09 20:48:00,
2013-10-09 16:58:00,70.7,48.9,30.19,ESE,104,3.0,3.0,46,0.00,,,0.00,Wunderground v.1.15,2013-10-09 20:58:00,
2013-10-09 17:03:00,70.6,50.0,30.19,East,80,3.0,3.0,48,0.00,,,0.00,Wunderground v.1.15,2013-10-09 21:03:00,
2013-10-09 17:08:00,70.8,49.6,30.19,SE,126,2.0,3.0,47,0.00,,,0.00,Wunderground v.1.15,2013-10-09 21:08:00,
2013-10-09 17:18:00,70.6,48.8,30.19,East,93,3.0,5.0,46,0.00,,,0.00,Wunderground v.1.15,2013-10-09 21:18:00,
2013-10-09 17:29:00,71.1,49.8,30.19,East,91,0.0,5.0,47,0.00,,,0.00,Wunderground v.1.15,2013-10-09 21:29:00,
2013-10-09 17:39:00,70.8,50.1,30.19,East,98,2.0,2.0,48,0.00,,,0.00,Wunderground v.1.15,2013-10-09 21:39:00,
2013-10-09 17:49:00,70.7,50.6,30.19,East,98,1.0,3.0,49,0.00,,,0.00,Wunderground v.1.15,2013-10-09 21:49:00,
2013-10-09 17:59:00,70.2,50.7,30.19,ESE,105,3.0,3.0,50,0.00,,,0.00,Wunderground v.1.15,2013-10-09 21:59:00,
2013-10-09 18:08:00,70.3,50.2,30.19,ESE,105,0.0,0.0,49,0.00,,,0.00,Wunderground v.1.15,2013-10-09 22:08:00,
2013-10-09 18:23:00,69.9,50.9,30.19,ESE,105,0.0,0.0,51,0.00,,,0.00,Wunderground v.1.15,2013-10-09 22:23:00,
2013-10-09 18:29:00,69.5,51.6,30.19,ESE,105,0.0,0.0,53,0.00,,,0.00,Wunderground v.1.15,2013-10-09 22:29:00,
2013-10-09 18:43:00,67.9,51.6,30.18,ESE,105,0.0,0.0,56,0.00,,,0.00,Wunderground v.1.15,2013-10-09 22:43:00,
2013-10-09 18:48:00,67.1,51.4,30.19,ESE,105,0.0,0.0,57,0.00,,,0.00,Wunderground v.1.15,2013-10-09 22:48:00,
2013-10-09 18:59:00,65.3,51.9,30.18,ESE,105,0.0,0.0,62,0.00,,,0.00,Wunderground v.1.15,2013-10-09 22:59:00,
2013-10-09 19:08:00,63.7,51.7,30.19,ESE,105,0.0,0.0,65,0.00,,,0.00,Wunderground v.1.15,2013-10-09 23:08:00,
2013-10-09 19:18:00,62.3,51.2,30.19,ESE,105,0.0,0.0,67,0.00,,,0.00,Wunderground v.1.15,2013-10-09 23:18:00,
2013-10-09 19:28:00,60.9,51.4,30.19,ESE,105,0.0,0.0,71,0.00,,,0.00,Wunderground v.1.15,2013-10-09 23:28:00,
2013-10-09 19:38:00,59.8,51.5,30.19,ESE,105,0.0,0.0,74,0.00,,,0.00,Wunderground v.1.15,2013-10-09 23:38:00,
2013-10-09 19:48:00,58.7,51.2,30.19,ESE,105,0.0,0.0,76,0.00,,,0.00,Wunderground v.1.15,2013-10-09 23:48:00,
2013-10-09 19:59:00,57.4,50.6,30.19,ESE,105,0.0,0.0,78,0.00,,,0.00,Wunderground v.1.15,2013-10-09 23:59:00,
2013-10-09 20:09:00,56.7,50.6,30.19,ESE,105,0.0,0.0,80,0.00,,,0.00,Wunderground v.1.15,2013-10-10 00:09:00,
2013-10-09 20:19:00,56.0,50.3,30.19,ESE,105,0.0,0.0,81,0.00,,,0.00,Wunderground v.1.15,2013-10-10 00:19:00,
2013-10-09 20:29:00,55.3,49.9,30.19,ESE,105,0.0,0.0,82,0.00,,,0.00,Wunderground v.1.15,2013-10-10 00:29:00,
2013-10-09 20:39:00,54.5,49.8,30.19,ESE,105,0.0,0.0,84,0.00,,,0.00,Wunderground v.1.15,2013-10-10 00:39:00,
2013-10-09 20:49:00,53.7,49.3,30.19,ESE,105,0.0,0.0,85,0.00,,,0.00,Wunderground v.1.15,2013-10-10 00:49:00,
2013-10-09 20:58:00,53.3,48.9,30.19,ESE,105,0.0,0.0,85,0.00,,,0.00,Wunderground v.1.15,2013-10-10 00:58:00,
2013-10-09 21:04:00,53.2,48.8,30.19,ESE,105,0.0,0.0,85,0.00,,,0.00,Wunderground v.1.15,2013-10-10 01:04:00,
2013-10-09 21:09:00,52.9,48.8,30.19,ESE,105,0.0,0.0,86,0.00,,,0.00,Wunderground v.1.15,2013-10-10 01:09:00,
2013-10-09 21:18:00,52.3,48.2,30.19,ESE,105,0.0,0.0,86,0.00,,,0.00,Wunderground v.1.15,2013-10-10 01:18:00,
2013-10-09 21:28:00,51.8,48.1,30.19,ESE,105,0.0,0.0,87,0.00,,,0.00,Wunderground v.1.15,2013-10-10 01:28:00,
2013-10-09 21:38:00,51.4,48.0,30.19,ESE,105,0.0,0.0,88,0.00,,,0.00,Wunderground v.1.15,2013-10-10 01:38:00,
2013-10-09 21:49:00,50.9,47.5,30.19,ESE,105,0.0,0.0,88,0.00,,,0.00,Wunderground v.1.15,2013-10-10 01:49:00,
2013-10-09 21:58:00,50.5,47.4,30.19,ESE,105,0.0,0.0,89,0.00,,,0.00,Wunderground v.1.15,2013-10-10 01:58:00,
2013-10-09 22:03:00,50.4,47.6,30.19,ESE,105,0.0,0.0,90,0.00,,,0.00,Wunderground v.1.15,2013-10-10 02:03:00,
2013-10-09 22:08:00,50.5,47.7,30.19,ESE,105,0.0,0.0,90,0.00,,,0.00,Wunderground v.1.15,2013-10-10 02:08:00,
2013-10-09 22:19:00,50.9,48.4,30.19,ESE,105,0.0,0.0,91,0.00,,,0.00,Wunderground v.1.15,2013-10-10 02:19:00,
2013-10-09 22:29:00,50.8,48.3,30.19,ESE,105,0.0,0.0,91,0.00,,,0.00,Wunderground v.1.15,2013-10-10 02:29:00,
2013-10-09 22:39:00,50.3,47.5,30.19,ESE,105,0.0,0.0,90,0.00,,,0.00,Wunderground v.1.15,2013-10-10 02:39:00,
2013-10-09 22:48:00,49.8,47.0,30.20,ESE,105,0.0,0.0,90,0.00,,,0.00,Wunderground v.1.15,2013-10-10 02:48:00,
2013-10-09 22:58:00,49.2,46.4,30.20,ESE,105,0.0,0.0,90,0.00,,,0.00,Wunderground v.1.15,2013-10-10 02:58:00,
2013-10-09 23:09:00,48.6,45.8,30.20,ESE,105,0.0,0.0,90,0.00,,,0.00,Wunderground v.1.15,2013-10-10 03:09:00,
2013-10-09 23:19:00,48.7,46.2,30.20,ESE,105,0.0,0.0,91,0.00,,,0.00,Wunderground v.1.15,2013-10-10 03:19:00,
2013-10-09 23:29:00,48.4,45.9,30.20,ESE,105,0.0,0.0,91,0.00,,,0.00,Wunderground v.1.15,2013-10-10 03:29:00,
2013-10-09 23:39:00,47.8,45.3,30.20,ESE,105,0.0,0.0,91,0.00,,,0.00,Wunderground v.1.15,2013-10-10 03:39:00,
2013-10-09 23:49:00,47.6,45.4,30.20,ESE,105,0.0,0.0,92,0.00,,,0.00,Wunderground v.1.15,2013-10-10 03:49:00,
2013-10-09 23:58:00,47.8,45.9,30.19,ESE,105,0.0,0.0,93,0.00,,,0.00,Wunderground v.1.15,2013-10-10 03:58:00,